createdAt,value
2023-08-14T00:06:55.118Z,51
2023-08-14T00:16:54.981Z,51
2023-08-14T00:26:54.984Z,52
2023-08-14T00:36:54.961Z,53
2023-08-14T00:46:54.948Z,53
2023-08-14T00:56:55.331Z,53
2023-08-14T01:06:54.933Z,53
2023-08-14T01:16:54.866Z,53
2023-08-14T01:26:54.857Z,54
2023-08-14T01:36:54.859Z,54
2023-08-14T01:46:54.797Z,55
2023-08-14T01:56:54.808Z,55
2023-08-14T02:06:54.780Z,56
2023-08-14T02:16:54.755Z,57
2023-08-14T02:26:54.788Z,58
2023-08-14T02:36:54.740Z,59
2023-08-14T02:46:54.702Z,60
2023-08-14T02:56:55.096Z,61
2023-08-14T03:06:54.704Z,62
2023-08-14T03:16:54.720Z,62
2023-08-14T03:26:54.647Z,62
2023-08-14T03:36:54.753Z,62
2023-08-14T03:46:54.592Z,63
2023-08-14T04:06:54.609Z,62
2023-08-14T04:16:54.579Z,62
2023-08-14T04:26:54.550Z,63
2023-08-14T04:36:54.502Z,64
2023-08-14T04:47:00.138Z,65
2023-08-14T04:56:54.441Z,65
2023-08-14T05:06:54.468Z,65
2023-08-14T05:16:54.457Z,65
2023-08-14T05:26:54.432Z,65
2023-08-14T05:36:54.428Z,65
2023-08-14T05:46:54.368Z,66
2023-08-14T06:06:54.334Z,67
2023-08-14T06:16:54.746Z,67
2023-08-14T06:26:54.283Z,68
2023-08-14T06:36:54.754Z,69
2023-08-14T06:46:54.701Z,69
2023-08-14T06:56:54.313Z,69
2023-08-14T07:06:54.265Z,71
2023-08-14T07:16:54.217Z,72
2023-08-14T07:26:54.640Z,69
2023-08-14T07:36:54.241Z,66
2023-08-14T07:46:54.155Z,65
2023-08-14T07:56:54.220Z,64
2023-08-14T08:06:54.596Z,64
2023-08-14T08:16:54.150Z,62
2023-08-14T08:26:54.174Z,61
2023-08-14T08:36:54.077Z,61
2023-08-14T08:46:54.039Z,61
2023-08-14T08:56:54.132Z,59
2023-08-14T09:06:54.026Z,57
2023-08-14T09:16:54.030Z,56
2023-08-14T09:26:53.999Z,54
2023-08-14T09:36:53.999Z,53
2023-08-14T09:46:54.401Z,52
2023-08-14T09:56:53.965Z,51
2023-08-14T10:06:53.951Z,48
2023-08-14T10:16:53.970Z,47
2023-08-14T10:26:54.341Z,46
2023-08-14T10:36:54.313Z,45
2023-08-14T10:46:55.824Z,44
2023-08-14T10:56:53.889Z,43
2023-08-14T11:06:53.854Z,42
2023-08-14T11:16:53.801Z,43
2023-08-14T11:26:53.808Z,43
2023-08-14T11:37:06.781Z,43
2023-08-14T11:46:53.883Z,42
2023-08-14T11:56:53.770Z,40
2023-08-14T12:06:55.679Z,38
2023-08-14T12:26:55.667Z,38
2023-08-14T12:46:56.145Z,40
2023-08-14T12:56:53.677Z,39
2023-08-14T13:06:54.113Z,40
2023-08-14T13:16:53.710Z,40
2023-08-14T13:26:53.623Z,41
2023-08-14T13:36:53.608Z,42
2023-08-14T13:46:53.559Z,42
2023-08-14T13:56:55.138Z,42
2023-08-14T14:06:53.556Z,42
2023-08-14T14:16:53.528Z,42
2023-08-14T14:26:53.532Z,41
2023-08-14T14:36:53.480Z,41
2023-08-14T14:46:53.465Z,41
2023-08-14T14:56:53.472Z,40
2023-08-14T15:06:53.893Z,40
2023-08-14T15:16:53.441Z,41
2023-08-14T15:26:53.426Z,41
2023-08-14T15:36:53.900Z,41
2023-08-14T15:46:55.293Z,41
2023-08-14T15:56:55.586Z,40
2023-08-14T16:06:53.358Z,39
2023-08-14T16:16:53.318Z,39
2023-08-14T16:26:53.730Z,39
2023-08-14T16:36:53.292Z,39
2023-08-14T16:46:53.258Z,39
2023-08-14T16:56:53.261Z,39
2023-08-14T17:06:53.218Z,39
2023-08-14T17:16:53.206Z,39
2023-08-14T17:26:53.203Z,40
2023-08-14T17:36:53.160Z,41
2023-08-14T17:46:53.565Z,42
2023-08-14T17:56:55.091Z,42
2023-08-14T18:06:53.128Z,43
2023-08-14T18:16:53.088Z,44
2023-08-14T18:26:53.092Z,44
2023-08-14T18:36:53.056Z,45
2023-08-14T18:46:53.527Z,45
2023-08-14T18:56:53.087Z,45
2023-08-14T19:06:53.470Z,46
2023-08-14T19:16:53.048Z,46
2023-08-14T19:26:53.441Z,45
2023-08-14T19:36:52.947Z,45
2023-08-14T19:46:52.931Z,45
2023-08-14T19:56:52.930Z,44
2023-08-14T20:06:52.891Z,44
2023-08-14T20:16:52.888Z,45
2023-08-14T20:26:52.887Z,45
2023-08-14T20:36:52.866Z,45
2023-08-14T20:46:53.249Z,45
2023-08-14T20:56:52.821Z,46
2023-08-14T21:06:52.818Z,46
2023-08-14T21:16:53.170Z,46
2023-08-14T21:26:53.229Z,46
2023-08-14T21:36:52.761Z,47
2023-08-14T21:46:54.658Z,47
2023-08-14T21:56:52.700Z,47
2023-08-14T22:06:52.664Z,47
2023-08-14T22:26:52.638Z,48
2023-08-14T22:36:52.632Z,48
2023-08-14T22:46:52.566Z,48
2023-08-14T22:56:52.591Z,48
2023-08-14T23:06:52.572Z,48
2023-08-14T23:16:52.556Z,48
2023-08-14T23:26:52.545Z,48
2023-08-14T23:36:52.518Z,49
2023-08-14T23:46:52.968Z,49
2023-08-14T23:56:54.448Z,50
